Lakeway's Hourly Summary for Saturday, July 7, 2018
Hour Temp
(f)
RH
(%)
Solar Rad.
(MJ/m2)
Rainfall
(in)
Wind
(mph)
7/7/2018 12:00 AM 80 72 0 0 0.3
7/7/2018 1:00 AM 78 77 0 0 0.08
7/7/2018 2:00 AM 77 79 0 0 0
7/7/2018 3:00 AM 76 82 0 0 0.05
7/7/2018 4:00 AM 75 86 0 0 0.25
7/7/2018 5:00 AM 75 87 0 0 0.25
7/7/2018 6:00 AM 74 90 0.01 0 0.68
7/7/2018 7:00 AM 74 90 0.19 0 0.68
7/7/2018 8:00 AM 75 86 0.43 0 0.43
7/7/2018 9:00 AM 79 82 1.2 0 0.61
7/7/2018 10:00 AM 79 74 1.2 0.04 1.16
7/7/2018 11:00 AM 78 94 0.43 0.05 1.16
7/7/2018 12:00 PM 75 94 0.93 0.01 0.14
7/7/2018 1:00 PM 80 91 2.58 0 0.19
7/7/2018 2:00 PM 85 67 2.58 0 1.52
7/7/2018 3:00 PM 85 69 2.48 0 1.77
7/7/2018 4:00 PM 80 69 0.94 0 1.77
7/7/2018 5:00 PM 80 68 0.94 0 1.05
7/7/2018 6:00 PM 81 69 0.68 0 0.33
7/7/2018 7:00 PM 81 69 0.48 0 0.14
7/7/2018 8:00 PM 80 71 0.18 0 0.14
7/7/2018 9:00 PM 79 73 0.03 0 0.1
7/7/2018 10:00 PM 77 78 0 0 0.2
7/7/2018 11:00 PM 75 86 0 0 0.2
Data Summary 78 79 15.28 0.10 0.55